Time;durP1;ratioP1;P1;durP2;ratioP2;P2;SDS_P1;SDS_P2;PMS_P1;PMS_P2;Temp;Humidity;BMP_temperature;BMP_pressure;BME280_temperature;BME280_humidity;BME280_pressure;Samples;Min_cycle;Max_cycle;Signal;HPM_P1;HPM_P2
2021/04/05 01:45:18;;;;;;;35.35;17.42;;;5.70;99.90;;;6.38;75.25;99969.31;5032635;28;20037;-82
2021/04/05 01:47:45;;;;;;;37.03;17.85;;;5.80;99.90;;;6.37;75.31;99953.84;5033653;28;20044;-85
2021/04/05 01:50:13;;;;;;;37.20;17.17;;;5.70;99.90;;;6.33;75.59;99950.94;5032680;28;20065;-85
2021/04/05 01:52:41;;;;;;;31.83;18.00;;;5.70;99.90;;;6.34;75.63;99941.47;5032513;28;20029;-85
2021/04/05 01:55:09;;;;;;;38.58;18.02;;;5.60;99.90;;;6.38;75.41;99930.50;5032237;28;20030;-84
2021/04/05 01:57:36;;;;;;;39.17;18.55;;;5.60;99.90;;;6.24;75.83;99932.78;5033035;28;20452;-84
2021/04/05 02:00:19;;;;;;;36.55;18.15;;;5.60;99.90;;;6.13;76.62;99923.34;5032288;28;20132;-83
2021/04/05 02:02:45;;;;;;;32.13;17.88;;;5.50;99.90;;;6.16;76.55;99917.09;5031900;28;20120;-85
2021/04/05 02:05:12;;;;;;;40.42;18.85;;;5.50;99.90;;;6.28;76.26;99906.81;5032440;28;20038;-83
2021/04/05 02:07:40;;;;;;;38.78;16.95;;;5.50;99.90;;;6.25;76.10;99895.59;5033553;28;20037;-86
2021/04/05 02:10:20;;;;;;;43.42;18.27;;;5.50;99.90;;;6.22;76.64;99904.63;5032224;28;20033;-85
2021/04/05 02:12:47;;;;;;;39.15;18.55;;;5.60;99.90;;;6.28;76.50;99908.78;5031435;28;20029;-84
2021/04/05 02:15:15;;;;;;;36.10;17.00;;;5.50;99.90;;;6.31;76.51;99895.03;5032030;28;20112;-86
2021/04/05 02:17:45;;;;;;;38.03;18.20;;;5.60;99.90;;;6.27;76.64;99876.66;5032133;28;20095;-83
2021/04/05 02:20:15;;;;;;;41.00;20.42;;;5.60;99.90;;;6.30;76.46;99873.16;5031651;28;20041;-86
2021/04/05 02:22:52;;;;;;;42.17;17.80;;;5.60;99.90;;;6.33;76.46;99875.25;5031921;28;20033;-84
2021/04/05 02:25:25;;;;;;;41.72;17.90;;;5.60;99.90;;;6.37;76.12;99848.44;5032412;28;20079;-86
2021/04/05 02:27:53;;;;;;;32.58;17.20;;;5.60;99.90;;;6.27;76.58;99848.91;5031849;28;20397;-87
2021/04/05 02:30:27;;;;;;;44.25;19.38;;;5.60;99.90;;;6.36;76.74;99839.31;5031377;28;20036;-83
2021/04/05 02:33:04;;;;;;;34.72;17.75;;;5.60;99.90;;;6.32;76.70;99826.50;5032314;28;20469;-85
2021/04/05 02:35:34;;;;;;;35.63;17.65;;;5.60;99.90;;;6.39;76.60;99837.00;5038463;28;20030;-84
2021/04/05 02:38:03;;;;;;;39.17;18.17;;;5.60;99.90;;;6.28;76.61;99817.25;5049054;28;20029;-87
2021/04/05 02:40:32;;;;;;;37.95;18.25;;;5.60;99.90;;;6.27;77.13;99821.19;5037246;28;20044;-86
2021/04/05 02:42:59;;;;;;;35.17;17.58;;;5.60;99.90;;;6.37;76.45;99826.25;5031660;28;20033;-85
2021/04/05 02:45:27;;;;;;;36.78;18.80;;;5.60;99.90;;;6.24;76.75;99816.34;5031283;28;20025;-87
2021/04/05 02:47:58;;;;;;;37.40;18.33;;;5.60;99.90;;;6.39;76.55;99818.38;5031424;28;20041;-85
2021/04/05 02:50:30;;;;;;;40.30;20.45;;;5.70;99.90;;;6.31;76.66;99834.00;5030776;28;20037;-86
2021/04/05 02:53:03;;;;;;;36.70;18.33;;;5.70;99.90;;;6.36;76.75;99830.16;5031185;28;20441;-86
2021/04/05 02:55:30;;;;;;;38.92;19.15;;;5.60;99.90;;;6.39;76.41;99837.00;5031273;28;20037;-86
2021/04/05 02:57:57;;;;;;;35.95;18.60;;;5.60;99.90;;;6.34;76.28;99813.91;5031480;28;20131;-87
2021/04/05 03:00:26;;;;;;;41.42;18.92;;;5.60;99.90;;;6.45;76.44;99810.66;5031121;28;20060;-86
2021/04/05 03:02:55;;;;;;;37.08;18.88;;;5.60;99.90;;;6.40;76.33;99816.41;5031530;28;20180;-84
2021/04/05 03:05:28;;;;;;;46.17;20.48;;;5.60;99.90;;;6.44;76.13;99811.78;5031323;28;20084;-87
2021/04/05 03:07:55;;;;;;;40.67;18.35;;;5.70;99.90;;;6.52;76.41;99799.75;5031854;28;20044;-87
2021/04/05 03:10:34;;;;;;;37.47;18.92;;;5.80;99.90;;;6.60;76.07;99807.94;5032028;28;20025;-88
2021/04/05 03:13:45;;;;;;;42.00;19.23;;;5.80;99.90;;;6.54;75.98;99798.25;5037487;28;20130;-86
2021/04/05 03:16:24;;;;;;;39.53;20.70;;;5.80;99.90;;;6.49;76.66;99795.69;5029228;28;20152;-88
2021/04/05 03:24:34;;;;;;;41.47;20.52;;;5.90;99.90;;;6.53;76.73;99779.97;5053341;22;20045;-85
2021/04/05 03:26:59;;;;;;;44.60;21.10;;;5.90;99.90;;;6.68;76.21;99775.63;5035587;28;20033;-85
2021/04/05 03:29:28;;;;;;;40.40;21.95;;;6.00;99.90;;;6.63;76.25;99773.94;5035268;28;20033;-85
2021/04/05 03:31:58;;;;;;;39.22;20.35;;;6.00;99.90;;;6.68;76.06;99762.56;5015776;28;20037;-85
2021/04/05 03:34:31;;;;;;;43.13;19.77;;;6.00;99.90;;;6.65;76.46;99754.94;5015432;28;20482;-86
2021/04/05 03:37:18;;;;;;;36.40;18.75;;;6.00;99.90;;;6.83;75.68;99749.91;5015305;28;20061;-85
2021/04/05 03:39:49;;;;;;;44.55;20.40;;;6.00;99.90;;;6.77;75.92;99737.47;5015671;28;20036;-86
2021/04/05 03:43:02;;;;;;;43.55;19.77;;;6.10;99.90;;;6.81;75.93;99727.25;5031697;28;20141;-82
2021/04/05 03:45:42;;;;;;;38.50;19.33;;;6.10;99.90;;;6.80;76.17;99717.31;5024221;28;20041;-85
2021/04/05 03:48:43;;;;;;;42.45;22.05;;;6.10;99.90;;;6.84;76.17;99718.19;5016571;28;20498;-87
2021/04/05 03:51:27;;;;;;;39.05;20.88;;;6.10;99.90;;;6.93;75.46;99713.31;5015142;28;20033;-86
2021/04/05 03:54:15;;;;;;;41.42;19.90;;;6.20;99.90;;;6.81;76.29;99697.53;5031636;28;20030;-85
2021/04/05 03:56:46;;;;;;;49.20;21.00;;;6.10;99.90;;;6.86;76.10;99680.63;5014578;28;20034;-85
2021/04/05 03:59:25;;;;;;;45.40;20.70;;;6.10;99.90;;;6.90;76.14;99675.16;5014823;28;20164;-85
2021/04/05 04:01:59;;;;;;;45.13;22.10;;;6.10;99.90;;;6.84;76.86;99660.72;5014538;28;20120;-86
2021/04/05 04:09:38;;;;;;;48.13;21.27;;;6.10;99.90;;;6.77;76.71;99641.13;5016214;28;20029;-86
2021/04/05 04:12:13;;;;;;;45.53;22.08;;;6.10;99.90;;;6.85;76.88;99642.91;5014628;28;20022;-85
2021/04/05 04:14:44;;;;;;;50.78;21.73;;;6.10;99.90;;;6.79;77.11;99627.69;5015616;28;20128;-83
2021/04/05 04:17:11;;;;;;;41.70;20.27;;;6.10;99.90;;;6.89;77.05;99624.41;5031031;28;20041;-86
2021/04/05 04:19:39;;;;;;;41.80;22.88;;;6.20;99.90;;;6.92;76.90;99622.06;5031156;28;20125;-85
2021/04/05 04:22:07;;;;;;;52.28;22.88;;;6.20;99.90;;;6.86;77.37;99633.44;5031420;28;20099;-87
2021/04/05 04:24:35;;;;;;;50.78;21.92;;;6.20;99.90;;;7.02;77.23;99635.41;5032179;28;20034;-89
2021/04/05 04:27:04;;;;;;;48.53;22.50;;;6.20;99.90;;;6.93;77.44;99624.50;5014674;28;20038;-85
2021/04/05 04:29:31;;;;;;;50.05;23.38;;;6.20;99.90;;;6.88;77.44;99620.00;5014033;28;20060;-86
2021/04/05 04:31:57;;;;;;;48.75;22.15;;;6.20;99.90;;;6.73;78.22;99620.00;5014281;28;20025;-84
2021/04/05 04:34:24;;;;;;;42.40;21.42;;;6.30;99.90;;;6.90;78.20;99617.66;5014065;28;20048;-85
2021/04/05 04:36:51;;;;;;;43.00;22.05;;;6.20;99.90;;;6.82;77.94;99607.56;5014577;28;20076;-85
2021/04/05 04:39:19;;;;;;;46.97;21.92;;;6.20;99.90;;;6.95;78.09;99605.50;5031117;28;20117;-82
2021/04/05 04:41:48;;;;;;;39.60;21.23;;;6.20;99.90;;;7.02;77.78;99611.22;5014216;28;20445;-86
2021/04/05 04:44:15;;;;;;;40.00;20.65;;;6.20;99.90;;;6.92;77.78;99608.19;5014195;28;20481;-85
2021/04/05 04:46:42;;;;;;;41.78;21.00;;;6.20;99.90;;;6.88;78.47;99613.63;5030801;28;20122;-84
2021/04/05 04:49:12;;;;;;;42.30;20.73;;;6.20;99.90;;;7.01;77.81;99603.25;5014490;28;20026;-87
2021/04/05 04:51:41;;;;;;;42.47;19.90;;;6.20;99.90;;;7.09;77.63;99593.94;5014501;28;20026;-85
2021/04/05 04:54:11;;;;;;;41.75;22.30;;;6.20;99.90;;;6.95;78.42;99602.72;5014356;28;20098;-87
2021/04/05 04:56:38;;;;;;;47.63;22.17;;;6.20;99.90;;;6.88;78.65;99589.47;5018883;28;20030;-85
2021/04/05 04:59:09;;;;;;;40.97;19.70;;;6.20;99.90;;;7.04;78.22;99595.00;5032289;28;20093;-85
2021/04/05 05:01:40;;;;;;;40.17;20.05;;;6.20;99.90;;;6.96;78.78;99592.41;5022061;28;20037;-88
2021/04/05 05:04:26;;;;;;;50.75;21.20;;;6.30;99.90;;;7.09;78.13;99591.97;5014912;28;20056;-85
2021/04/05 05:06:57;;;;;;;40.20;20.20;;;6.20;99.90;;;7.00;78.81;99583.00;5014822;28;20045;-87
2021/04/05 05:09:26;;;;;;;41.13;20.27;;;6.30;99.90;;;7.11;78.70;99572.16;5032469;28;20030;-84
2021/04/05 05:11:54;;;;;;;41.90;20.52;;;6.30;99.90;;;7.13;78.28;99580.91;5033175;28;20489;-85
2021/04/05 05:14:21;;;;;;;42.47;19.88;;;6.30;99.90;;;7.18;78.25;99572.31;5015120;28;20040;-84
2021/04/05 05:16:48;;;;;;;47.20;21.00;;;6.30;99.90;;;7.06;78.74;99559.38;5014542;28;20183;-84
2021/04/05 05:19:15;;;;;;;42.05;21.05;;;6.30;99.90;;;7.04;79.37;99553.34;5031056;28;20117;-84
2021/04/05 05:21:52;;;;;;;44.00;20.73;;;6.30;99.90;;;7.04;79.10;99542.25;5015418;28;20033;-83
2021/04/05 05:24:25;;;;;;;43.20;20.60;;;6.30;99.90;;;7.13;79.27;99544.81;5014270;28;20040;-85
2021/04/05 05:26:54;;;;;;;38.33;20.63;;;6.30;99.90;;;7.13;78.98;99548.41;5013763;28;20056;-84
2021/04/05 05:29:23;;;;;;;44.25;21.52;;;6.30;99.90;;;7.15;79.35;99548.06;5014687;28;20029;-85
2021/04/05 05:31:50;;;;;;;41.28;22.02;;;6.40;99.90;;;7.08;79.81;99536.78;5014479;28;20415;-86
2021/04/05 05:34:21;;;;;;;41.00;20.98;;;6.40;99.90;;;7.23;79.42;99541.50;5014787;28;20034;-86
2021/04/05 05:36:49;;;;;;;43.30;23.90;;;6.40;99.90;;;7.24;79.05;99548.66;5014007;28;20393;-82
2021/04/05 05:39:18;;;;;;;47.08;21.67;;;6.40;99.90;;;7.20;79.58;99531.09;5031942;28;20026;-86
2021/04/05 05:42:13;;;;;;;43.72;21.70;;;6.40;99.90;;;7.25;79.27;99536.41;5014400;28;20030;-85
2021/04/05 05:44:42;;;;;;;41.10;21.60;;;6.40;99.90;;;7.21;79.52;99535.50;5031788;28;20041;-85
2021/04/05 05:47:38;;;;;;;44.88;23.92;;;6.40;99.90;;;7.23;79.89;99542.28;5017366;28;20501;-85
2021/04/05 05:50:24;;;;;;;49.60;23.47;;;6.40;99.90;;;7.20;79.83;99526.38;5014039;28;20026;-85
2021/04/05 05:53:25;;;;;;;;;;;6.40;99.90;;;7.15;80.44;99529.44;5031186;28;20126;-81
2021/04/05 05:56:33;;;;;;;51.42;23.83;;;6.40;99.90;;;7.09;80.66;99527.31;5013396;28;20369;-84
2021/04/05 05:59:37;;;;;;;48.08;24.25;;;6.40;99.90;;;7.00;82.01;99526.69;5013757;28;20190;-82
2021/04/05 06:02:35;;;;;;;51.22;26.50;;;6.40;99.90;;;6.95;83.05;99504.75;5006629;28;20046;-83
2021/04/05 06:05:34;;;;;;;55.70;26.20;;;6.40;99.90;;;7.03;82.88;99504.53;5014062;28;20307;-85
2021/04/05 06:08:35;;;;;;;44.55;24.80;;;6.40;99.90;;;7.12;82.74;99504.38;5013903;28;20466;-83
2021/04/05 06:11:42;;;;;;;52.53;27.00;;;6.30;99.90;;;7.04;83.83;99503.38;5014908;28;20030;-86
2021/04/05 06:14:28;;;;;;;52.58;27.50;;;6.40;99.90;;;7.11;84.09;99495.22;5017302;28;20034;-85
2021/04/05 06:17:12;;;;;;;48.13;25.77;;;6.30;99.90;;;6.96;84.78;99493.31;5014975;28;20041;-85
2021/04/05 06:19:58;;;;;;;48.67;27.90;;;6.30;99.90;;;7.03;84.98;99492.66;5031665;28;20083;-84
2021/04/05 06:23:24;;;;;;;54.50;27.25;;;6.30;99.90;;;6.90;86.47;99492.75;5014950;28;20030;-83
2021/04/05 06:26:30;;;;;;;55.83;27.67;;;6.20;99.90;;;6.81;87.40;99486.59;4997354;28;20128;-83
2021/04/05 06:30:10;;;;;;;58.58;28.80;;;6.20;99.90;;;6.80;88.20;99473.91;5013420;28;20076;-84
2021/04/05 06:33:02;;;;;;;52.92;28.27;;;6.10;99.90;;;6.72;88.65;99469.34;5017146;28;20107;-86
2021/04/05 06:36:17;;;;;;;57.00;28.45;;;6.10;99.90;;;6.80;88.75;99453.69;5016107;28;20533;-86
2021/04/05 06:38:54;;;;;;;47.55;26.33;;;6.10;99.90;;;6.88;88.36;99467.34;5014833;28;20394;-86
2021/04/05 06:41:36;;;;;;;52.42;28.73;;;6.10;99.90;;;6.87;88.73;99462.94;5016091;28;20060;-84
2021/04/05 06:44:56;;;;;;;53.67;29.42;;;6.10;99.90;;;6.77;89.02;99455.22;5016815;28;20096;-86
2021/04/05 06:48:15;;;;;;;61.30;29.67;;;6.10;99.90;;;6.86;88.97;99457.78;5016122;28;20367;-85
2021/04/05 06:51:29;;;;;;;60.72;28.95;;;6.10;99.90;;;6.89;88.23;99457.88;5031835;28;20041;-84
2021/04/05 06:54:47;;;;;;;49.17;27.20;;;6.10;99.90;;;6.91;88.86;99443.59;5015650;28;20029;-84
2021/04/05 06:58:02;;;;;;;57.67;28.70;;;6.10;99.90;;;6.72;89.31;99436.06;5016213;28;20029;-86
2021/04/05 07:01:07;;;;;;;57.67;29.40;;;6.10;99.90;;;6.82;89.14;99438.25;5013385;28;20394;-85
2021/04/05 07:04:25;;;;;;;51.17;28.58;;;6.10;99.90;;;6.97;89.46;99453.25;5015131;28;20026;-85
2021/04/05 07:07:26;;;;;;;;;;;6.10;99.90;;;6.92;89.19;99447.19;5014354;28;20026;-84
2021/04/05 07:10:11;;;;;;;52.13;27.13;;;6.20;99.90;;;6.88;89.19;99441.56;5012885;28;19913;-88
2021/04/05 07:12:50;;;;;;;58.80;28.17;;;6.10;99.90;;;6.89;89.05;99441.22;5011382;28;20041;-85
2021/04/05 07:15:42;;;;;;;58.42;30.08;;;6.20;99.90;;;6.83;89.22;99430.75;4994610;28;20030;-85
2021/04/05 07:19:08;;;;;;;60.67;30.73;;;6.10;99.90;;;6.79;89.86;99422.34;4996704;28;20031;-88
2021/04/05 07:22:43;;;;;;;55.20;29.85;;;6.20;99.90;;;6.79;90.17;99425.13;5019050;28;20014;-88
2021/04/05 07:25:31;;;;;;;56.15;29.70;;;6.20;99.90;;;6.75;90.99;99424.22;5023646;28;20038;-87
2021/04/05 07:28:45;;;;;;;54.13;29.00;;;6.20;99.90;;;6.88;89.92;99413.81;4995808;28;20026;-86
2021/04/05 07:32:08;;;;;;;55.38;30.48;;;6.10;99.90;;;6.93;90.74;99429.38;4994796;28;20034;-87
2021/04/05 07:35:32;;;;;;;61.72;30.50;;;6.10;99.90;;;6.82;91.36;99429.94;5001891;28;20027;-86
2021/04/05 07:38:41;;;;;;;65.22;31.73;;;6.10;99.90;;;6.87;91.89;99482.38;4979468;28;20039;-87
2021/04/05 07:41:27;;;;;;;18.58;10.40;;;6.10;99.90;;;6.40;84.01;99523.25;4994121;28;20076;-86
2021/04/05 07:44:08;;;;;;;14.07;8.05;;;5.70;99.90;;;5.31;84.86;99543.94;4993867;28;20061;-87
2021/04/05 07:46:51;;;;;;;11.23;6.22;;;4.80;99.90;;;4.81;87.39;99528.91;5009549;28;20042;-86
2021/04/05 07:49:33;;;;;;;8.73;4.53;;;4.30;99.90;;;4.57;89.07;99547.13;4994382;28;20053;-87
2021/04/05 07:52:36;;;;;;;8.73;3.50;;;3.90;99.90;;;4.37;90.20;99548.00;5011995;28;20030;-86
2021/04/05 07:55:04;;;;;;;5.72;2.88;;;3.70;99.90;;;4.37;90.95;99559.06;4996321;28;20026;-88
2021/04/05 07:58:17;;;;;;;6.30;2.80;;;3.60;99.90;;;4.35;91.27;99555.84;4994159;28;20121;-87
2021/04/05 08:01:14;;;;;;;5.88;2.60;;;3.60;99.90;;;4.47;92.11;99555.84;4994280;28;20027;-89
2021/04/05 08:04:14;;;;;;;7.82;3.13;;;3.60;99.90;;;4.53;92.32;99568.31;4994684;28;20439;-87
2021/04/05 08:07:48;;;;;;;6.70;2.92;;;3.70;99.90;;;4.57;92.91;99577.53;4994866;28;20089;-87
2021/04/05 08:10:24;;;;;;;4.43;2.55;;;3.70;99.90;;;4.60;91.95;99576.84;5011469;28;20507;-87
2021/04/05 08:13:09;;;;;;;6.63;2.47;;;3.80;99.90;;;4.68;91.87;99567.66;4998970;28;20482;-89
2021/04/05 08:16:05;;;;;;;4.30;2.00;;;3.90;99.90;;;4.78;92.03;99578.22;4998074;28;20030;-87
2021/04/05 08:18:50;;;;;;;7.00;2.38;;;4.00;99.90;;;4.75;91.93;99576.16;4998695;28;20435;-88
2021/04/05 08:22:12;;;;;;;6.50;1.95;;;3.90;99.90;;;4.80;91.18;99561.28;4999751;28;20030;-86
2021/04/05 08:25:11;;;;;;;6.72;2.60;;;4.00;99.90;;;4.93;91.97;99568.44;4990712;28;20046;-89
2021/04/05 08:28:12;;;;;;;6.10;2.60;;;4.10;99.90;;;4.96;91.70;99575.25;4999617;28;20064;-84
2021/04/05 08:31:46;;;;;;;8.15;3.85;;;4.20;99.90;;;5.06;91.10;99577.53;4999347;28;20031;-88
2021/04/05 08:35:05;;;;;;;8.20;4.15;;;4.20;99.90;;;5.11;91.54;99582.84;4997939;28;20030;-87
2021/04/05 08:38:23;;;;;;;8.73;3.65;;;4.20;99.90;;;5.23;91.08;99602.22;4997958;28;20062;-87
2021/04/05 08:41:20;;;;;;;7.78;4.30;;;4.30;99.90;;;5.18;90.16;99599.66;5014545;28;20034;-86
2021/04/05 08:44:17;;;;;;;5.65;3.03;;;4.30;99.90;;;5.22;90.58;99589.53;5000288;28;20030;-88
2021/04/05 08:46:54;;;;;;;5.93;2.00;;;4.40;99.90;;;5.29;89.37;99590.56;5004198;28;20038;-89
2021/04/05 08:49:26;;;;;;;4.20;1.77;;;4.40;99.90;;;5.23;90.20;99594.69;5001717;28;20418;-85
2021/04/05 08:52:08;;;;;;;3.92;2.25;;;4.50;99.90;;;5.19;90.04;99595.75;4999733;28;20094;-83
2021/04/05 08:54:41;;;;;;;8.15;2.80;;;4.40;99.90;;;5.22;90.77;99604.16;4998014;28;20088;-84
2021/04/05 08:57:22;;;;;;;4.95;2.58;;;4.40;99.90;;;5.24;91.73;99601.03;5000960;28;20109;-85
2021/04/05 09:00:08;;;;;;;4.30;2.17;;;4.40;99.90;;;5.26;90.85;99618.13;5017181;28;20042;-84
2021/04/05 09:03:10;;;;;;;7.50;3.95;;;4.50;99.90;;;5.18;90.94;99624.56;4996741;28;20192;-85
2021/04/05 09:05:44;;;;;;;4.70;1.67;;;4.50;99.90;;;5.06;91.37;99644.78;4997366;28;20049;-83
2021/04/05 09:08:21;;;;;;;3.05;1.55;;;4.40;99.90;;;5.14;90.35;99645.78;4998978;28;20030;-83
2021/04/05 09:11:08;;;;;;;2.00;1.30;;;4.40;99.90;;;5.03;90.11;99647.41;5002603;28;20030;-86
2021/04/05 09:13:58;;;;;;;3.47;1.40;;;4.30;99.90;;;4.98;91.21;99656.75;4999617;28;20030;-84
2021/04/05 09:17:23;;;;;;;8.25;1.40;;;4.30;99.90;;;4.65;87.19;99691.97;5001115;28;20407;-84
2021/04/05 09:20:33;;;;;;;11.38;1.70;;;4.20;99.90;;;4.12;87.25;99695.56;5019951;28;20094;-90
2021/04/05 09:23:25;;;;;;;10.43;1.70;;;3.60;99.90;;;3.96;86.87;99691.81;5000459;28;20062;-89
2021/04/05 09:27:00;;;;;;;7.50;1.48;;;3.40;99.90;;;4.08;87.00;99708.44;5001862;28;20054;-89
2021/04/05 09:30:32;;;;;;;7.95;1.30;;;3.40;99.90;;;4.20;86.42;99706.56;4985783;28;20038;-85
2021/04/05 09:34:09;;;;;;;7.63;2.22;;;3.50;99.90;;;4.27;86.98;99706.00;4979630;28;20406;-84
2021/04/05 09:37:18;;;;;;;7.45;1.15;;;3.60;99.90;;;4.17;85.84;99701.69;5011328;28;20098;-85
2021/04/05 09:40:21;;;;;;;7.68;1.38;;;3.50;99.90;;;4.28;86.45;99717.88;4999904;28;20367;-88
2021/04/05 09:43:38;;;;;;;12.23;2.47;;;3.50;99.90;;;4.48;86.88;99720.63;5002457;28;20053;-89
2021/04/05 09:46:54;;;;;;;9.10;1.80;;;3.60;99.90;;;4.46;84.06;99728.44;5012258;28;20042;-87
2021/04/05 09:50:20;;;;;;;10.02;1.98;;;3.80;99.90;;;4.44;83.66;99730.72;5013031;28;20029;-82
2021/04/05 09:53:32;;;;;;;11.23;1.98;;;3.80;99.90;;;4.81;84.29;99737.19;4951821;28;20038;-89
2021/04/05 09:56:05;;;;;;;11.85;3.30;;;4.00;99.90;;;4.88;81.97;99734.66;5004015;28;20030;-86
2021/04/05 09:59:06;;;;;;;13.35;4.15;;;4.20;99.90;;;5.01;82.29;99738.28;5002807;28;20106;-89
2021/04/05 10:01:36;;;;;;;10.10;3.42;;;4.20;99.90;;;4.98;82.55;99737.00;5004689;28;20034;-86
2021/04/05 10:04:12;;;;;;;11.07;3.55;;;4.30;99.90;;;5.21;82.90;99734.59;5004327;28;20053;-87
2021/04/05 10:06:40;;;;;;;;;;;4.40;99.90;;;5.21;82.82;99734.59;5007690;28;20033;-91
2021/04/05 10:09:09;;;;;;;14.00;3.17;;;4.50;99.90;;;5.14;81.53;99724.09;5026338;28;20271;-86
2021/04/05 10:11:45;;;;;;;12.80;3.28;;;4.50;99.90;;;5.41;83.18;99724.59;5011209;28;20030;-85
2021/04/05 10:14:22;;;;;;;14.93;2.97;;;4.60;99.90;;;5.30;79.71;99725.03;5014178;28;20034;-86
2021/04/05 10:16:53;;;;;;;8.07;1.67;;;4.70;99.90;;;5.12;79.39;99729.19;5012749;28;20091;-84
2021/04/05 10:19:41;;;;;;;13.32;2.40;;;4.60;99.90;;;5.18;79.83;99749.13;5009369;28;20073;-84
2021/04/05 10:22:18;;;;;;;12.82;2.30;;;4.50;99.90;;;5.47;81.29;99745.34;5014668;28;20026;-85
2021/04/05 10:25:01;;;;;;;11.68;2.35;;;4.70;99.90;;;5.23;79.85;99752.47;5016967;28;20073;-85
2021/04/05 10:27:32;;;;;;;11.43;2.75;;;4.70;99.90;;;5.08;81.41;99763.41;5016659;28;20114;-86
2021/04/05 10:30:03;;;;;;;7.90;2.15;;;4.40;99.90;;;4.64;82.18;99776.91;5005225;28;20105;-89
2021/04/05 10:32:29;;;;;;;9.00;1.52;;;4.10;99.90;;;4.53;83.39;99774.88;4997828;28;20125;-87
2021/04/05 10:35:00;;;;;;;2.53;1.40;;;3.90;99.90;;;3.88;84.44;99784.66;4997098;28;20035;-86
2021/04/05 10:37:40;;;;;;;7.40;1.42;;;3.50;99.90;;;3.71;85.74;99798.56;4998117;28;20042;-87
2021/04/05 10:40:17;;;;;;;8.98;1.33;;;3.20;99.90;;;3.66;87.18;99799.56;4996928;28;20049;-86
2021/04/05 10:43:09;;;;;;;5.68;1.60;;;3.10;99.90;;;3.70;86.33;99817.09;4997227;28;20038;-85
2021/04/05 10:45:43;;;;;;;5.60;1.08;;;3.00;99.90;;;3.77;87.18;99805.50;4997076;28;20034;-85
2021/04/05 10:48:37;;;;;;;4.95;0.90;;;3.10;99.90;;;3.60;85.16;99800.06;4997023;28;20030;-85
2021/04/05 10:51:54;;;;;;;3.13;1.23;;;3.10;99.90;;;3.64;86.12;99818.41;4995785;28;20050;-86
2021/04/05 10:54:29;;;;;;;5.93;1.15;;;3.10;99.90;;;3.82;86.89;99824.66;4997646;28;20026;-87
2021/04/05 10:57:07;;;;;;;1.47;0.70;;;3.10;99.90;;;3.94;86.61;99815.66;4999018;28;20030;-86
2021/04/05 10:59:58;;;;;;;1.27;0.52;;;3.30;99.90;;;3.71;82.49;99834.47;4997620;28;20339;-86
2021/04/05 11:02:50;;;;;;;3.05;0.65;;;3.20;99.90;;;3.60;82.75;99842.31;4997528;28;20051;-85
2021/04/05 11:05:24;;;;;;;2.50;0.63;;;3.00;99.90;;;3.76;82.02;99827.97;4996607;28;20121;-84
2021/04/05 11:08:00;;;;;;;4.85;1.25;;;3.10;99.90;;;3.97;81.92;99837.91;4998325;28;20041;-84
2021/04/05 11:10:33;;;;;;;2.58;0.70;;;3.30;99.90;;;4.22;80.63;99838.88;4999384;28;20034;-82
2021/04/05 11:13:14;;;;;;;1.98;0.70;;;3.50;99.90;;;4.43;80.68;99836.16;4996585;28;20034;-85
2021/04/05 11:15:45;;;;;;;4.18;0.90;;;3.60;99.90;;;4.57;78.31;99833.91;4997414;28;20181;-82
2021/04/05 11:18:21;;;;;;;2.10;0.60;;;3.90;99.90;;;4.63;77.41;99844.41;4995775;28;20435;-82
2021/04/05 11:20:55;;;;;;;1.90;0.50;;;4.00;99.90;;;4.92;73.25;99845.47;4995092;28;20058;-84
2021/04/05 11:23:23;;;;;;;2.05;0.65;;;4.10;99.90;;;5.31;73.57;99858.75;4995138;28;20045;-86
2021/04/05 11:25:59;;;;;;;2.97;0.70;;;4.40;99.90;;;5.41;69.89;99844.47;4995809;28;20065;-86
2021/04/05 11:28:28;;;;;;;2.45;0.88;;;4.60;99.90;;;5.41;70.71;99863.03;4995916;28;20109;-85
2021/04/05 11:31:09;;;;;;;4.80;1.77;;;4.70;99.90;;;4.87;69.81;99849.28;4994859;28;20057;-82
2021/04/05 11:33:55;;;;;;;4.82;0.82;;;4.50;99.90;;;5.01;70.28;99849.78;4994593;28;20022;-85
2021/04/05 11:36:30;;;;;;;4.35;0.90;;;4.40;99.90;;;5.00;71.01;99852.91;4995406;28;20034;-86
2021/04/05 11:39:00;;;;;;;1.00;0.63;;;4.30;99.90;;;4.76;69.58;99864.66;4996572;28;20453;-87
2021/04/05 11:41:29;;;;;;;4.70;1.48;;;4.30;99.90;;;4.48;69.20;99852.53;4998574;28;20030;-84
2021/04/05 11:44:02;;;;;;;1.75;0.90;;;4.20;99.90;;;4.03;74.16;99875.25;4997304;28;20121;-86
2021/04/05 11:46:36;;;;;;;8.60;1.50;;;3.70;99.90;;;3.40;77.66;99878.94;5001692;28;20030;-87
2021/04/05 11:49:14;;;;;;;5.20;1.02;;;3.00;99.90;;;3.48;76.37;99871.75;5004759;28;20037;-89
2021/04/05 11:51:50;;;;;;;4.47;1.27;;;2.90;99.90;;;3.88;74.99;99880.53;5004433;28;20098;-89
2021/04/05 11:54:55;;;;;;;6.78;1.25;;;3.10;99.90;;;4.03;69.85;99882.72;5004518;28;20056;-88
2021/04/05 11:57:56;;;;;;;4.22;1.38;;;3.40;99.90;;;4.38;68.63;99886.09;5003149;28;20041;-84
2021/04/05 12:00:44;;;;;;;11.13;1.55;;;3.70;99.90;;;4.51;66.00;99869.25;5005301;28;20089;-87
2021/04/05 12:03:36;;;;;;;7.70;1.42;;;3.90;99.90;;;4.33;65.83;99894.59;5008689;28;20042;-86
2021/04/05 12:06:16;;;;;;;6.13;1.40;;;3.90;99.90;;;4.48;64.74;99894.00;5003862;28;20057;-86
2021/04/05 12:09:24;;;;;;;5.90;1.65;;;3.80;99.90;;;4.18;63.94;99887.66;5019273;28;20062;-84
2021/04/05 12:12:02;;;;;;;5.72;1.38;;;3.70;99.90;;;4.18;64.61;99888.50;5003879;28;20034;-85
2021/04/05 12:14:33;;;;;;;4.72;1.50;;;3.70;99.90;;;3.95;64.45;99886.34;5007331;28;20049;-90
2021/04/05 12:17:04;;;;;;;6.28;1.40;;;3.60;99.90;;;4.04;63.21;99899.00;5011908;28;20038;-85
2021/04/05 12:19:42;;;;;;;8.60;1.70;;;3.60;99.90;;;4.36;63.66;99916.84;5008378;28;20486;-85
2021/04/05 12:22:11;;;;;;;9.55;1.60;;;3.70;99.90;;;4.80;63.42;99909.88;5003704;28;20045;-88
2021/04/05 12:24:50;;;;;;;8.55;1.50;;;4.20;99.90;;;5.22;62.68;99900.38;5005560;28;20340;-89
2021/04/05 12:27:18;;;;;;;3.95;1.38;;;4.50;99.90;;;5.77;61.21;99904.69;4987174;28;20038;-86
2021/04/05 12:29:50;;;;;;;9.25;1.40;;;5.00;99.90;;;5.79;56.28;99913.44;5002223;28;20482;-85
2021/04/05 12:32:20;;;;;;;8.65;1.70;;;5.10;99.90;;;5.75;56.46;99918.84;5001334;28;20029;-84
2021/04/05 12:34:58;;;;;;;6.30;1.38;;;5.20;99.90;;;5.44;58.91;99924.09;5002282;28;20477;-85
2021/04/05 12:37:28;;;;;;;5.30;1.73;;;5.00;99.90;;;5.36;57.26;99913.94;4998444;28;20030;-83
2021/04/05 12:40:00;;;;;;;10.77;1.58;;;4.80;99.90;;;5.05;58.00;99917.13;4998032;28;20200;-86
2021/04/05 12:42:37;;;;;;;5.35;1.30;;;4.50;99.90;;;4.71;57.84;99937.59;4998504;28;20037;-86
2021/04/05 12:45:11;;;;;;;5.78;1.50;;;4.30;99.90;;;4.37;57.41;99954.41;5000478;28;20041;-87
2021/04/05 12:47:44;;;;;;;4.82;0.60;;;4.00;99.90;;;3.65;60.81;99987.69;5003035;28;20045;-84
2021/04/05 12:50:22;;;;;;;1.83;0.65;;;3.60;99.90;;;3.12;66.19;99974.25;5000384;28;20031;-85
2021/04/05 12:52:49;;;;;;;4.90;0.65;;;2.70;99.90;;;2.72;65.70;99998.41;4998164;28;20096;-85
2021/04/05 12:55:19;;;;;;;1.55;0.40;;;2.30;99.90;;;2.62;59.86;99963.69;4998091;28;20486;-86
2021/04/05 12:57:46;;;;;;;4.85;1.10;;;2.30;99.90;;;2.68;60.54;99969.84;4995830;28;20034;-87
2021/04/05 13:00:22;;;;;;;4.43;0.73;;;2.20;99.90;;;2.96;61.43;99968.41;4997446;28;20061;-86
2021/04/05 13:03:13;;;;;;;4.65;0.50;;;2.30;99.90;;;3.44;59.78;99972.91;4995579;28;20030;-85
2021/04/05 13:06:07;;;;;;;0.95;0.60;;;2.60;99.90;;;3.83;55.69;99964.38;4997293;28;20046;-84
2021/04/05 13:09:03;;;;;;;4.68;0.68;;;3.10;99.90;;;4.57;57.05;99963.88;4998131;28;20074;-84
2021/04/05 13:11:42;;;;;;;9.40;1.17;;;3.70;99.90;;;4.51;55.15;99960.50;4997352;28;20093;-84
2021/04/05 13:14:29;;;;;;;5.50;1.08;;;4.00;99.90;;;4.69;56.57;99962.00;4997548;28;20041;-84
2021/04/05 13:17:27;;;;;;;5.55;1.02;;;4.00;99.90;;;5.09;54.62;99964.31;4998975;28;20030;-85
2021/04/05 13:20:10;;;;;;;5.95;1.35;;;4.40;99.90;;;5.88;54.85;99966.84;4997719;28;20031;-85
2021/04/05 13:22:43;;;;;;;4.43;1.27;;;4.90;99.90;;;6.19;51.42;99971.88;4997266;28;20158;-85
2021/04/05 13:25:30;;;;;;;2.47;1.05;;;5.50;98.00;;;6.55;51.06;99962.75;4996779;28;20113;-87
2021/04/05 13:28:01;;;;;;;6.53;1.05;;;5.80;96.70;;;6.24;53.00;99966.06;4995445;28;20479;-82
2021/04/05 13:30:43;;;;;;;3.65;1.33;;;5.70;99.40;;;5.70;53.18;99984.78;4996360;28;20034;-86